Weather at Lumberton Regional Airport

Public forecast

Using degrees Fahrenheit for public forecast. Weather courtesy of forecast.io.

Current aviation weather report (METAR) for Lumberton Regional Airport

2024/06/20 11:56 (retrieved 16 minutes ago)

KLBT 201156Z AUTO 04006KT 10SM CLR 23/19 A3031 RMK AO2 SLP263 T02330194 10233 20194 51012

Aviation forecast (TAF) for Lumberton Regional Airport

2024/06/20 12:22 (retrieved 0 seconds ago)

TAF KLBT 201120Z 2012/2112 04005KT P6SM SCT250 FM201500 07010KT P6SM SCT050 FM202100 09010KT P6SM SCT060 FM210100 09005KT P6SM SCT250 FM210800 06003KT P6SM SKC